createdAt,value
2019-05-09T00:00:16.488Z,0.30
2019-05-09T00:01:15.270Z,0.31
2019-05-09T00:02:17.482Z,0.01
2019-05-09T00:03:15.205Z,0.00
2019-05-09T00:04:15.944Z,0.08
2019-05-09T00:05:15.007Z,0.00
2019-05-09T00:06:15.514Z,0.09
2019-05-09T00:07:15.174Z,0.42
2019-05-09T00:08:15.074Z,0.22
2019-05-09T00:09:16.390Z,0.01
2019-05-09T00:10:15.365Z,0.40
2019-05-09T00:11:15.018Z,0.04
2019-05-09T00:12:18.590Z,0.60
2019-05-09T00:13:15.034Z,0.31
2019-05-09T00:14:15.018Z,0.00
2019-05-09T00:15:15.076Z,0.37
2019-05-09T00:16:15.214Z,0.67
2019-05-09T00:17:15.046Z,0.89
2019-05-09T00:18:17.738Z,0.21
2019-05-09T00:19:15.062Z,0.13
2019-05-09T00:20:15.016Z,0.27
2019-05-09T00:21:15.157Z,0.25
2019-05-09T00:22:15.052Z,0.89
2019-05-09T00:23:15.104Z,0.14
2019-05-09T00:24:17.842Z,0.18
2019-05-09T00:25:15.140Z,0.91
2019-05-09T00:26:15.013Z,0.66
2019-05-09T00:27:15.311Z,0.17
2019-05-09T00:28:15.198Z,0.40
2019-05-09T00:29:15.016Z,1.03
2019-05-09T00:30:15.952Z,0.78
2019-05-09T00:31:15.068Z,0.07
2019-05-09T00:32:15.177Z,0.74
2019-05-09T00:33:15.006Z,1.19
2019-05-09T00:34:16.024Z,0.34
2019-05-09T00:35:15.785Z,1.21
2019-05-09T00:36:14.990Z,0.51
2019-05-09T00:37:16.742Z,2.13
2019-05-09T00:38:15.117Z,0.49
2019-05-09T00:39:15.008Z,0.00
2019-05-09T00:40:15.136Z,1.01
2019-05-09T00:41:15.693Z,1.25
2019-05-09T00:42:16.490Z,0.55
2019-05-09T00:43:15.337Z,0.15
2019-05-09T00:44:15.756Z,0.04
2019-05-09T00:45:15.893Z,0.60
2019-05-09T00:46:20.375Z,0.07
2019-05-09T00:47:15.816Z,0.54
2019-05-09T00:48:17.008Z,0.22
2019-05-09T00:49:15.056Z,0.44
2019-05-09T00:50:15.411Z,0.08
2019-05-09T00:51:15.666Z,0.00
2019-05-09T00:52:15.184Z,0.22
2019-05-09T00:53:15.314Z,0.51
2019-05-09T00:54:15.668Z,0.00
2019-05-09T00:55:15.452Z,0.16
2019-05-09T00:56:16.413Z,0.00
2019-05-09T00:57:15.183Z,0.84
2019-05-09T00:58:15.197Z,0.26
2019-05-09T00:59:15.499Z,0.17
2019-05-09T01:00:15.299Z,0.11
2019-05-09T01:01:15.099Z,0.05
2019-05-09T01:02:15.329Z,0.74
2019-05-09T01:03:15.983Z,0.00
2019-05-09T01:04:16.182Z,0.62
2019-05-09T01:05:15.100Z,0.00
2019-05-09T01:06:17.291Z,0.00
2019-05-09T01:07:16.586Z,1.21
2019-05-09T01:08:15.746Z,0.62
2019-05-09T01:09:15.931Z,0.34
2019-05-09T01:10:15.175Z,0.01
2019-05-09T01:11:15.836Z,0.00
2019-05-09T01:12:15.987Z,0.00
2019-05-09T01:13:15.503Z,0.18
2019-05-09T01:14:15.219Z,0.39
2019-05-09T01:15:15.654Z,0.69
2019-05-09T01:16:18.503Z,0.00
2019-05-09T01:17:15.142Z,0.00
2019-05-09T01:18:15.402Z,1.18
2019-05-09T01:19:15.131Z,0.44
2019-05-09T01:20:15.567Z,0.08
2019-05-09T01:21:15.728Z,0.00
2019-05-09T01:22:15.380Z,0.01
2019-05-09T01:23:15.652Z,0.00
2019-05-09T01:24:15.474Z,0.00
2019-05-09T01:25:16.114Z,0.00
2019-05-09T01:26:15.103Z,1.65
2019-05-09T01:27:15.059Z,0.73
2019-05-09T01:28:15.493Z,0.75
2019-05-09T01:29:15.478Z,0.11
2019-05-09T01:30:15.396Z,0.00
2019-05-09T01:31:15.802Z,0.00
2019-05-09T01:32:15.048Z,0.00
2019-05-09T01:33:15.443Z,1.09
2019-05-09T01:34:15.064Z,0.71
2019-05-09T01:35:15.660Z,0.52
2019-05-09T01:36:15.120Z,0.27
2019-05-09T01:37:16.405Z,0.26
2019-05-09T01:38:15.466Z,0.00
2019-05-09T01:39:16.150Z,1.03
2019-05-09T01:40:15.850Z,0.05
2019-05-09T01:41:27.123Z,0.18
2019-05-09T01:42:15.393Z,0.10
2019-05-09T01:43:15.114Z,0.25
2019-05-09T01:44:15.495Z,0.02
2019-05-09T01:45:15.104Z,0.08
2019-05-09T01:46:15.067Z,0.00
2019-05-09T01:47:15.863Z,0.00
2019-05-09T01:48:15.832Z,0.28
2019-05-09T01:49:15.840Z,0.01
2019-05-09T01:50:16.317Z,0.40
2019-05-09T01:51:16.182Z,0.07
2019-05-09T01:52:15.631Z,0.39
2019-05-09T01:53:15.395Z,0.00
2019-05-09T01:54:15.500Z,0.03
2019-05-09T01:55:16.767Z,0.63
2019-05-09T01:56:15.988Z,0.01
2019-05-09T01:57:15.700Z,0.10
2019-05-09T01:58:15.850Z,0.43
2019-05-09T01:59:16.328Z,0.02
2019-05-09T02:00:15.586Z,0.00
2019-05-09T02:01:15.860Z,0.20
2019-05-09T02:02:15.926Z,0.09
2019-05-09T02:03:15.483Z,0.00
2019-05-09T02:04:15.814Z,0.00
2019-05-09T02:05:16.446Z,0.00
2019-05-09T02:06:15.596Z,0.00
2019-05-09T02:07:15.366Z,0.00
2019-05-09T02:08:16.450Z,0.00
2019-05-09T02:09:15.390Z,0.00
2019-05-09T02:10:15.876Z,0.00
2019-05-09T02:11:15.226Z,0.00
2019-05-09T02:12:15.804Z,0.00
2019-05-09T02:13:15.475Z,0.00
2019-05-09T02:14:15.332Z,0.00
2019-05-09T02:15:15.910Z,0.00
2019-05-09T02:16:15.096Z,0.00
2019-05-09T02:17:15.299Z,0.00
2019-05-09T02:18:15.712Z,0.00
2019-05-09T02:19:15.272Z,0.00
2019-05-09T02:20:16.465Z,0.00
2019-05-09T02:21:15.617Z,0.00
2019-05-09T02:22:15.265Z,0.16
2019-05-09T02:23:16.374Z,0.10
2019-05-09T02:24:16.638Z,0.00
2019-05-09T02:25:15.386Z,0.00
2019-05-09T02:26:17.192Z,0.00
2019-05-09T02:27:15.726Z,0.00
2019-05-09T02:28:15.272Z,0.00
2019-05-09T02:29:16.588Z,0.00
2019-05-09T02:30:16.441Z,0.00
2019-05-09T02:31:16.654Z,0.00
2019-05-09T02:32:18.281Z,0.00
2019-05-09T02:33:16.088Z,0.00
2019-05-09T02:34:15.864Z,0.00
2019-05-09T02:35:17.153Z,0.00
2019-05-09T02:36:18.714Z,0.00
2019-05-09T02:37:18.674Z,0.00
2019-05-09T02:38:15.221Z,0.00
2019-05-09T02:39:18.648Z,0.00
2019-05-09T02:40:18.782Z,0.00
2019-05-09T02:41:19.338Z,0.00
2019-05-09T02:42:19.328Z,0.18
2019-05-09T02:43:18.696Z,0.27
2019-05-09T02:44:19.306Z,0.00
2019-05-09T02:45:18.506Z,0.00
2019-05-09T02:46:18.996Z,0.00
2019-05-09T02:47:18.020Z,0.00
2019-05-09T02:48:18.399Z,0.00
2019-05-09T02:49:18.913Z,0.00
2019-05-09T02:50:19.454Z,0.00
2019-05-09T02:51:18.210Z,0.00
2019-05-09T02:52:19.627Z,0.00
2019-05-09T02:53:18.714Z,0.00
2019-05-09T02:54:18.815Z,0.00
2019-05-09T02:55:18.382Z,0.00
2019-05-09T02:56:18.922Z,0.00
2019-05-09T02:57:18.231Z,0.00
2019-05-09T02:58:20.435Z,0.00
2019-05-09T02:59:18.668Z,0.00
2019-05-09T03:00:15.403Z,0.00
2019-05-09T03:01:18.886Z,0.00
2019-05-09T03:02:19.275Z,0.00
2019-05-09T03:03:19.505Z,0.00
2019-05-09T03:04:18.688Z,0.00
2019-05-09T03:05:19.237Z,0.00
2019-05-09T03:06:19.267Z,0.00
2019-05-09T03:07:18.904Z,0.00
2019-05-09T03:08:18.983Z,0.00
2019-05-09T03:09:18.777Z,0.00
2019-05-09T03:10:19.220Z,0.00
2019-05-09T03:11:18.561Z,0.00
2019-05-09T03:12:26.566Z,0.00
2019-05-09T03:13:19.115Z,0.00
2019-05-09T03:14:19.499Z,0.00
2019-05-09T03:15:18.564Z,0.00
2019-05-09T03:16:19.102Z,0.00
2019-05-09T03:17:18.593Z,0.24
2019-05-09T03:18:18.383Z,0.00
2019-05-09T03:19:19.081Z,0.01
2019-05-09T03:20:18.181Z,0.00
2019-05-09T03:21:18.913Z,0.02
2019-05-09T03:22:15.470Z,0.00
2019-05-09T03:23:18.878Z,0.00
2019-05-09T03:24:18.481Z,0.00
2019-05-09T03:25:15.340Z,0.00
2019-05-09T03:26:19.688Z,0.00
2019-05-09T03:27:18.519Z,0.00
2019-05-09T03:28:18.443Z,0.00
2019-05-09T03:29:15.233Z,0.20
2019-05-09T03:30:20.362Z,0.04
2019-05-09T03:31:19.465Z,0.00
2019-05-09T03:32:19.037Z,0.00
2019-05-09T03:33:15.266Z,0.00
2019-05-09T03:34:15.368Z,0.00
2019-05-09T03:35:17.205Z,0.00
2019-05-09T03:36:18.121Z,0.09
2019-05-09T03:37:17.454Z,0.00
2019-05-09T03:38:17.985Z,0.00
2019-05-09T03:39:18.500Z,0.00
2019-05-09T03:40:15.373Z,0.00
2019-05-09T03:41:17.996Z,0.00
2019-05-09T03:42:20.666Z,0.00
2019-05-09T03:43:18.586Z,0.00
2019-05-09T03:44:17.712Z,0.51
2019-05-09T03:45:15.247Z,0.13
2019-05-09T03:46:17.921Z,0.05
2019-05-09T03:47:17.345Z,0.12
2019-05-09T03:48:18.607Z,0.25
2019-05-09T03:49:18.119Z,0.00
2019-05-09T03:50:17.688Z,0.00
2019-05-09T03:51:15.178Z,0.00
2019-05-09T03:52:18.214Z,0.53
2019-05-09T03:53:15.570Z,0.31
2019-05-09T03:54:15.251Z,0.19
2019-05-09T03:55:17.706Z,0.35
2019-05-09T03:56:15.677Z,0.10
2019-05-09T03:57:17.889Z,0.02
2019-05-09T03:58:15.159Z,0.00
2019-05-09T03:59:17.475Z,0.02
2019-05-09T04:00:15.206Z,0.35
2019-05-09T04:01:17.529Z,0.31
2019-05-09T04:02:17.839Z,0.68
2019-05-09T04:03:19.847Z,0.63
2019-05-09T04:04:17.356Z,0.48
2019-05-09T04:05:15.379Z,0.12
2019-05-09T04:06:18.539Z,0.03
2019-05-09T04:07:15.894Z,0.59
2019-05-09T04:08:18.534Z,0.16
2019-05-09T04:09:17.784Z,0.21
2019-05-09T04:10:18.034Z,0.17
2019-05-09T04:11:15.818Z,0.01
2019-05-09T04:12:15.254Z,0.00
2019-05-09T04:13:18.011Z,0.38
2019-05-09T04:14:17.467Z,0.46
2019-05-09T04:15:19.151Z,0.01
2019-05-09T04:16:18.851Z,0.00
2019-05-09T04:17:18.110Z,0.00
2019-05-09T04:18:17.651Z,0.00
2019-05-09T04:19:17.504Z,0.00
2019-05-09T04:20:17.351Z,0.00
2019-05-09T04:21:17.550Z,0.48
2019-05-09T04:22:17.995Z,0.21
2019-05-09T04:23:18.429Z,0.00
2019-05-09T04:24:17.500Z,0.25
2019-05-09T04:25:17.977Z,0.00
2019-05-09T04:26:17.500Z,0.02
2019-05-09T04:27:17.731Z,0.00
2019-05-09T04:28:17.629Z,0.15
2019-05-09T04:29:19.758Z,0.04
2019-05-09T04:30:20.814Z,0.00
2019-05-09T04:31:17.828Z,0.00
2019-05-09T04:32:15.218Z,0.00
2019-05-09T04:33:17.750Z,0.00
2019-05-09T04:34:18.092Z,0.02
2019-05-09T04:35:17.542Z,0.03
2019-05-09T04:36:18.344Z,0.00
2019-05-09T04:37:17.834Z,0.00
2019-05-09T04:38:17.893Z,0.06
2019-05-09T04:39:20.863Z,0.11
2019-05-09T04:40:17.823Z,0.00
2019-05-09T04:41:23.687Z,0.00
2019-05-09T04:42:18.506Z,0.00
2019-05-09T04:43:19.410Z,0.47
2019-05-09T04:44:19.224Z,0.28
2019-05-09T04:45:17.709Z,0.00
2019-05-09T04:46:20.698Z,0.09
2019-05-09T04:47:17.376Z,0.08
2019-05-09T04:48:20.282Z,0.00
2019-05-09T04:49:16.018Z,0.00
2019-05-09T04:50:19.928Z,0.00
2019-05-09T04:51:18.040Z,0.00
2019-05-09T04:52:18.168Z,0.11
2019-05-09T04:53:18.166Z,0.00
2019-05-09T04:54:17.584Z,0.34
2019-05-09T04:55:18.284Z,0.33
2019-05-09T04:56:17.561Z,0.00
2019-05-09T04:57:21.913Z,0.58
2019-05-09T04:58:19.161Z,0.02
2019-05-09T04:59:17.906Z,0.01
2019-05-09T05:00:18.306Z,0.00
2019-05-09T05:01:19.600Z,0.04
2019-05-09T05:02:18.289Z,0.00
2019-05-09T05:03:18.315Z,0.00
2019-05-09T05:04:18.096Z,0.00
2019-05-09T05:05:17.955Z,0.00
2019-05-09T05:06:18.734Z,0.00
2019-05-09T05:07:18.060Z,0.00
2019-05-09T05:08:18.226Z,0.07
2019-05-09T05:09:20.573Z,0.00
2019-05-09T05:10:18.488Z,0.11
2019-05-09T05:11:17.890Z,0.00
2019-05-09T05:12:18.697Z,0.00
2019-05-09T05:13:25.663Z,0.00
2019-05-09T05:14:17.825Z,0.00
2019-05-09T05:15:15.278Z,0.00
2019-05-09T05:16:15.397Z,0.00
2019-05-09T05:17:18.042Z,0.00
2019-05-09T05:18:17.379Z,0.00
2019-05-09T05:19:18.062Z,0.00
2019-05-09T05:20:15.293Z,0.00
2019-05-09T05:21:15.370Z,0.00
2019-05-09T05:22:17.978Z,0.00
2019-05-09T05:23:18.258Z,0.00
2019-05-09T05:24:15.595Z,0.02
2019-05-09T05:25:17.736Z,0.21
2019-05-09T05:26:15.337Z,0.01
2019-05-09T05:27:15.566Z,0.04
2019-05-09T05:28:17.563Z,0.00
2019-05-09T05:29:17.498Z,0.00
2019-05-09T05:30:18.028Z,0.06
2019-05-09T05:31:17.887Z,0.54
2019-05-09T05:32:17.724Z,0.23
2019-05-09T05:33:15.748Z,0.00
2019-05-09T05:34:18.123Z,1.73
2019-05-09T05:35:15.301Z,0.07
2019-05-09T05:36:15.257Z,0.04
2019-05-09T05:37:17.547Z,0.05
2019-05-09T05:38:17.639Z,0.65
2019-05-09T05:39:17.723Z,0.00
2019-05-09T05:40:17.675Z,0.12
2019-05-09T05:41:15.455Z,1.32
2019-05-09T05:42:17.602Z,0.30
2019-05-09T05:43:17.423Z,1.29
2019-05-09T05:44:17.625Z,0.90
2019-05-09T05:45:15.412Z,0.55
2019-05-09T05:46:18.172Z,0.19
2019-05-09T05:47:15.429Z,0.97
2019-05-09T05:48:17.565Z,0.35
2019-05-09T05:49:18.468Z,0.55
2019-05-09T05:50:17.660Z,0.30
2019-05-09T05:51:18.326Z,0.04
2019-05-09T05:52:15.357Z,0.96
2019-05-09T05:53:15.765Z,0.66
2019-05-09T05:54:15.299Z,0.42
2019-05-09T05:55:18.049Z,0.53
2019-05-09T05:56:19.586Z,1.04
2019-05-09T05:57:17.704Z,0.49
2019-05-09T05:58:17.918Z,0.19
2019-05-09T05:59:17.691Z,0.94
2019-05-09T06:00:17.927Z,0.46
2019-05-09T06:01:18.715Z,0.31
2019-05-09T06:02:17.765Z,0.25
2019-05-09T06:03:17.758Z,0.41
2019-05-09T06:04:18.318Z,0.98
2019-05-09T06:05:15.700Z,0.93
2019-05-09T06:06:17.379Z,0.58
2019-05-09T06:07:17.800Z,0.43
2019-05-09T06:08:17.473Z,0.74
2019-05-09T06:09:15.345Z,0.00
2019-05-09T06:10:15.352Z,1.05
2019-05-09T06:11:17.554Z,0.63
2019-05-09T06:12:15.360Z,0.01
2019-05-09T06:13:18.231Z,0.38
2019-05-09T06:14:18.182Z,0.43
2019-05-09T06:15:18.039Z,1.16
2019-05-09T06:16:17.703Z,0.57
2019-05-09T06:17:18.050Z,0.35
2019-05-09T06:18:15.468Z,1.52
2019-05-09T06:19:17.591Z,1.36
2019-05-09T06:20:17.556Z,0.98
2019-05-09T06:21:17.588Z,1.20
2019-05-09T06:22:18.147Z,1.83
2019-05-09T06:23:17.425Z,0.80
2019-05-09T06:24:17.556Z,0.65
2019-05-09T06:25:20.955Z,0.93
2019-05-09T06:26:15.384Z,2.14
2019-05-09T06:27:15.326Z,1.91
2019-05-09T06:28:15.414Z,1.23
2019-05-09T06:29:17.817Z,0.73
2019-05-09T06:30:17.493Z,0.85
2019-05-09T06:31:15.348Z,0.74
2019-05-09T06:32:15.438Z,0.63
2019-05-09T06:33:17.840Z,0.97
2019-05-09T06:34:15.701Z,0.86
2019-05-09T06:35:17.578Z,0.92
2019-05-09T06:36:15.770Z,1.16
2019-05-09T06:37:18.156Z,1.58
2019-05-09T06:38:18.682Z,2.88
2019-05-09T06:39:17.715Z,1.63
2019-05-09T06:40:17.397Z,1.27
2019-05-09T06:41:17.675Z,0.62
2019-05-09T06:42:17.896Z,1.11
2019-05-09T06:43:15.328Z,0.59
2019-05-09T06:44:19.672Z,0.20
2019-05-09T06:45:17.847Z,0.87
2019-05-09T06:46:15.318Z,0.87
2019-05-09T06:47:15.740Z,0.68
2019-05-09T06:48:17.966Z,1.21
2019-05-09T06:49:26.858Z,1.00
2019-05-09T06:50:15.422Z,1.26
2019-05-09T06:51:18.903Z,0.80
2019-05-09T06:52:17.478Z,2.52
2019-05-09T06:53:17.986Z,2.20
2019-05-09T06:54:17.442Z,2.22
2019-05-09T06:55:17.356Z,1.44
2019-05-09T06:56:17.843Z,0.77
2019-05-09T06:57:15.369Z,1.57
2019-05-09T06:58:15.445Z,0.86
2019-05-09T06:59:15.968Z,0.94
2019-05-09T07:00:17.695Z,0.72
2019-05-09T07:01:15.425Z,0.64
2019-05-09T07:02:17.652Z,0.73
2019-05-09T07:03:18.303Z,0.92
2019-05-09T07:04:15.496Z,0.17
2019-05-09T07:05:17.831Z,0.98
2019-05-09T07:06:18.839Z,0.57
2019-05-09T07:07:17.499Z,1.22
2019-05-09T07:08:15.617Z,0.61
2019-05-09T07:09:17.406Z,0.62
2019-05-09T07:10:17.696Z,0.57
2019-05-09T07:11:15.563Z,0.18
2019-05-09T07:12:18.163Z,0.84
2019-05-09T07:13:15.373Z,1.11
2019-05-09T07:14:28.394Z,1.61
2019-05-09T07:15:17.638Z,1.57
2019-05-09T07:16:18.692Z,1.43
2019-05-09T07:17:15.492Z,0.52
2019-05-09T07:18:15.799Z,1.34
2019-05-09T07:19:17.479Z,0.95
2019-05-09T07:20:18.290Z,1.19
2019-05-09T07:21:15.454Z,1.69
2019-05-09T07:22:15.404Z,1.27
2019-05-09T07:23:17.724Z,0.31
2019-05-09T07:24:18.386Z,1.08
2019-05-09T07:25:18.420Z,0.64
2019-05-09T07:26:17.492Z,2.02
2019-05-09T07:27:17.855Z,1.12
2019-05-09T07:28:17.859Z,1.11
2019-05-09T07:29:17.642Z,2.09
2019-05-09T07:30:17.828Z,0.47
2019-05-09T07:31:17.613Z,1.33
2019-05-09T07:32:18.073Z,1.70
2019-05-09T07:33:18.690Z,0.93
2019-05-09T07:34:15.859Z,1.07
2019-05-09T07:35:15.715Z,1.88
2019-05-09T07:36:15.435Z,1.48
2019-05-09T07:37:15.420Z,1.94
2019-05-09T07:38:17.731Z,1.13
2019-05-09T07:39:17.559Z,2.41
2019-05-09T07:40:17.816Z,2.98
2019-05-09T07:41:17.640Z,2.73
2019-05-09T07:42:18.021Z,2.08
2019-05-09T07:43:17.860Z,1.72
2019-05-09T07:44:18.047Z,2.16
2019-05-09T07:45:17.899Z,1.19
2019-05-09T07:46:17.749Z,0.89
2019-05-09T07:47:17.712Z,0.92
2019-05-09T07:48:18.105Z,1.26
2019-05-09T07:49:17.476Z,1.58
2019-05-09T07:50:15.499Z,1.63
2019-05-09T07:51:15.489Z,1.33
2019-05-09T07:52:15.427Z,1.89
2019-05-09T07:53:17.569Z,1.48
2019-05-09T07:54:24.101Z,0.44
2019-05-09T07:55:18.009Z,1.10
2019-05-09T07:56:15.761Z,2.14
2019-05-09T07:57:18.171Z,2.62
2019-05-09T07:58:18.427Z,1.78
2019-05-09T07:59:15.481Z,1.09
2019-05-09T08:00:18.279Z,1.44
2019-05-09T08:01:15.443Z,1.48
2019-05-09T08:02:17.592Z,0.78
2019-05-09T08:03:15.465Z,1.09
2019-05-09T08:04:18.085Z,1.26
2019-05-09T08:05:17.430Z,1.24
2019-05-09T08:06:18.351Z,1.42
2019-05-09T08:07:17.572Z,0.40
2019-05-09T08:08:18.521Z,2.58
2019-05-09T08:09:15.819Z,1.04
2019-05-09T08:10:17.569Z,2.49
2019-05-09T08:11:17.804Z,2.17
2019-05-09T08:12:17.974Z,2.07
2019-05-09T08:13:18.243Z,1.73
2019-05-09T08:14:17.632Z,1.73
2019-05-09T08:15:16.745Z,1.75
2019-05-09T08:16:15.741Z,0.93
2019-05-09T08:17:17.958Z,0.41
2019-05-09T08:18:17.442Z,2.19
2019-05-09T08:19:18.011Z,1.34
2019-05-09T08:20:17.564Z,0.59
2019-05-09T08:21:17.881Z,2.01
2019-05-09T08:22:24.906Z,1.84
2019-05-09T08:23:17.951Z,0.63
2019-05-09T08:24:15.406Z,0.00
2019-05-09T08:25:18.200Z,0.00
2019-05-09T08:26:15.759Z,1.10
2019-05-09T08:27:17.482Z,1.32
2019-05-09T08:28:17.707Z,0.40
2019-05-09T08:29:19.559Z,0.99
2019-05-09T08:30:17.821Z,1.65
2019-05-09T08:31:17.694Z,2.07
2019-05-09T08:32:17.945Z,1.83
2019-05-09T08:33:15.520Z,2.96
2019-05-09T08:34:15.523Z,1.65
2019-05-09T08:35:15.480Z,3.06
2019-05-09T08:36:17.724Z,1.87
2019-05-09T08:37:17.442Z,2.39
2019-05-09T08:38:17.689Z,0.80
2019-05-09T08:39:15.465Z,0.07
2019-05-09T08:40:21.269Z,0.81
2019-05-09T08:41:18.420Z,1.84
2019-05-09T08:42:19.643Z,1.50
2019-05-09T08:43:17.878Z,0.80
2019-05-09T08:44:18.433Z,0.34
2019-05-09T08:45:27.403Z,0.87
2019-05-09T08:46:18.222Z,0.48
2019-05-09T08:47:18.536Z,2.23
2019-05-09T08:48:18.284Z,1.80
2019-05-09T08:49:15.568Z,1.07
2019-05-09T08:50:17.589Z,0.90
2019-05-09T08:51:17.983Z,1.03
2019-05-09T08:52:19.419Z,1.67
2019-05-09T08:53:15.510Z,0.26
2019-05-09T08:54:17.893Z,1.67
2019-05-09T08:55:17.492Z,0.95
2019-05-09T08:56:17.650Z,2.66
2019-05-09T08:57:18.033Z,1.52
2019-05-09T08:58:19.261Z,1.17
2019-05-09T08:59:18.312Z,1.36
2019-05-09T09:00:15.700Z,1.23
2019-05-09T09:01:27.392Z,1.54
2019-05-09T09:02:19.516Z,2.77
2019-05-09T09:03:15.596Z,2.21
2019-05-09T09:04:15.536Z,1.50
2019-05-09T09:05:18.437Z,1.71
2019-05-09T09:06:18.194Z,2.77
2019-05-09T09:07:15.542Z,1.45
2019-05-09T09:08:18.647Z,0.58
2019-05-09T09:09:17.869Z,1.93
2019-05-09T09:10:18.478Z,1.32
2019-05-09T09:11:15.526Z,1.84
2019-05-09T09:12:28.279Z,0.85
2019-05-09T09:13:17.520Z,1.87
2019-05-09T09:14:15.633Z,0.84
2019-05-09T09:15:17.826Z,1.77
2019-05-09T09:16:19.958Z,1.48
2019-05-09T09:17:15.635Z,1.68
2019-05-09T09:18:17.914Z,0.46
2019-05-09T09:19:17.806Z,0.83
2019-05-09T09:20:18.003Z,1.37
2019-05-09T09:21:18.153Z,1.40
2019-05-09T09:22:17.818Z,1.93
2019-05-09T09:23:18.093Z,1.35
2019-05-09T09:24:17.726Z,1.45
2019-05-09T09:25:18.288Z,0.02
2019-05-09T09:26:15.576Z,0.87
2019-05-09T09:27:15.500Z,0.58
2019-05-09T09:28:15.611Z,0.76
2019-05-09T09:29:17.743Z,1.34
2019-05-09T09:30:20.384Z,0.36
2019-05-09T09:31:18.036Z,1.21
2019-05-09T09:32:18.656Z,1.15
2019-05-09T09:33:17.600Z,0.03
2019-05-09T09:34:18.037Z,0.85
2019-05-09T09:35:15.600Z,0.81
2019-05-09T09:36:17.895Z,0.32
2019-05-09T09:37:18.518Z,0.88
2019-05-09T09:38:17.709Z,1.04
2019-05-09T09:39:15.567Z,0.08
2019-05-09T09:40:17.738Z,0.66
2019-05-09T09:41:17.999Z,0.24
2019-05-09T09:42:19.857Z,0.13
2019-05-09T09:43:17.595Z,1.28
2019-05-09T09:44:18.233Z,0.50
2019-05-09T09:45:18.567Z,0.22
2019-05-09T09:46:18.206Z,0.04
2019-05-09T09:47:20.605Z,0.00
2019-05-09T09:48:18.088Z,0.98
2019-05-09T09:49:18.068Z,0.26
2019-05-09T09:50:17.683Z,0.01
2019-05-09T09:51:18.321Z,0.70
2019-05-09T09:52:18.515Z,0.07
2019-05-09T09:53:17.796Z,0.13
2019-05-09T09:54:15.557Z,0.13
2019-05-09T09:55:15.596Z,0.00
2019-05-09T09:56:17.765Z,0.00
2019-05-09T09:57:18.823Z,0.47
2019-05-09T09:58:18.654Z,0.00
2019-05-09T09:59:15.495Z,0.19
2019-05-09T10:00:18.974Z,1.61
2019-05-09T10:01:17.947Z,1.80
2019-05-09T10:02:16.328Z,1.22
2019-05-09T10:03:15.557Z,1.55
2019-05-09T10:04:20.713Z,0.15
2019-05-09T10:05:18.152Z,1.57
2019-05-09T10:06:16.010Z,0.50
2019-05-09T10:07:15.605Z,0.59
2019-05-09T10:08:17.850Z,0.00
2019-05-09T10:09:17.483Z,0.00
2019-05-09T10:10:18.423Z,0.93
2019-05-09T10:11:17.956Z,1.46
2019-05-09T10:12:18.019Z,2.13
2019-05-09T10:13:18.280Z,1.17
2019-05-09T10:14:15.601Z,1.02
2019-05-09T10:15:18.743Z,1.72
2019-05-09T10:16:28.583Z,1.15
2019-05-09T10:17:17.913Z,0.89
2019-05-09T10:18:18.313Z,0.47
2019-05-09T10:19:15.537Z,0.43
2019-05-09T10:20:17.609Z,1.91
2019-05-09T10:21:15.830Z,0.61
2019-05-09T10:22:22.392Z,0.01
2019-05-09T10:23:18.816Z,0.00
2019-05-09T10:24:17.513Z,0.37
2019-05-09T10:25:18.333Z,0.10
2019-05-09T10:26:17.814Z,0.16
2019-05-09T10:27:18.491Z,0.00
2019-05-09T10:28:20.963Z,0.75
2019-05-09T10:29:17.678Z,0.90
2019-05-09T10:30:17.893Z,1.40
2019-05-09T10:31:16.181Z,0.41
2019-05-09T10:32:17.942Z,0.91
2019-05-09T10:33:17.507Z,1.14
2019-05-09T10:34:17.734Z,0.10
2019-05-09T10:35:17.650Z,0.00
2019-05-09T10:36:15.969Z,1.26
2019-05-09T10:37:15.610Z,1.52
2019-05-09T10:38:18.183Z,1.12
2019-05-09T10:39:15.607Z,1.37
2019-05-09T10:40:15.591Z,2.42
2019-05-09T10:41:16.000Z,1.20
2019-05-09T10:42:15.530Z,0.75
2019-05-09T10:43:33.114Z,0.64
2019-05-09T10:44:18.056Z,1.03
2019-05-09T10:45:17.834Z,1.08
2019-05-09T10:46:19.063Z,0.76
2019-05-09T10:47:16.001Z,0.77
2019-05-09T10:48:15.839Z,0.79
2019-05-09T10:49:15.950Z,1.64
2019-05-09T10:50:18.588Z,0.38
2019-05-09T10:51:15.778Z,0.72
2019-05-09T10:52:18.051Z,1.08
2019-05-09T10:53:17.979Z,1.02
2019-05-09T10:54:18.371Z,0.61
2019-05-09T10:55:17.714Z,1.18
2019-05-09T10:56:18.390Z,2.54
2019-05-09T10:57:15.741Z,1.11
2019-05-09T10:58:15.991Z,1.58
2019-05-09T10:59:18.308Z,1.64
2019-05-09T11:00:18.291Z,2.45
2019-05-09T11:01:18.214Z,2.54
2019-05-09T11:02:17.534Z,1.44
2019-05-09T11:03:18.029Z,2.08
2019-05-09T11:04:17.986Z,1.90
2019-05-09T11:05:15.700Z,0.84
2019-05-09T11:06:17.997Z,1.05
2019-05-09T11:07:18.190Z,1.50
2019-05-09T11:08:18.488Z,2.32
2019-05-09T11:09:18.024Z,2.06
2019-05-09T11:10:25.706Z,1.25
2019-05-09T11:11:17.826Z,1.64
2019-05-09T11:12:17.888Z,1.43
2019-05-09T11:13:17.996Z,1.63
2019-05-09T11:14:31.615Z,0.96
2019-05-09T11:15:17.782Z,2.26
2019-05-09T11:16:18.419Z,2.08
2019-05-09T11:17:21.819Z,1.71
2019-05-09T11:18:18.591Z,1.20
2019-05-09T11:19:18.366Z,1.83
2019-05-09T11:20:19.355Z,2.35
2019-05-09T11:21:15.690Z,2.61
2019-05-09T11:22:18.169Z,0.88
2019-05-09T11:23:15.615Z,0.52
2019-05-09T11:24:18.538Z,1.02
2019-05-09T11:25:16.034Z,0.92
2019-05-09T11:26:17.914Z,0.97
2019-05-09T11:27:18.653Z,0.68
2019-05-09T11:28:17.821Z,1.19
2019-05-09T11:29:18.586Z,0.93
2019-05-09T11:30:17.642Z,0.81
2019-05-09T11:31:18.034Z,0.59
2019-05-09T11:32:17.757Z,2.04
2019-05-09T11:33:18.311Z,1.36
2019-05-09T11:34:18.638Z,1.48
2019-05-09T11:35:17.642Z,1.03
2019-05-09T11:36:20.597Z,1.32
2019-05-09T11:37:15.782Z,1.41
2019-05-09T11:38:29.469Z,1.34
2019-05-09T11:39:34.124Z,1.05
2019-05-09T11:40:18.562Z,0.91
2019-05-09T11:41:19.099Z,1.17
2019-05-09T11:42:17.810Z,1.28
2019-05-09T11:43:17.935Z,1.20
2019-05-09T11:44:18.300Z,1.37
2019-05-09T11:45:17.932Z,2.57
2019-05-09T11:46:18.066Z,1.48
2019-05-09T11:47:31.931Z,2.11
2019-05-09T11:48:15.716Z,1.72
2019-05-09T11:49:17.984Z,1.43
2019-05-09T11:50:19.828Z,0.30
2019-05-09T11:51:20.428Z,0.17
2019-05-09T11:52:18.311Z,0.76
2019-05-09T11:53:17.656Z,1.75
2019-05-09T11:54:17.227Z,1.80
2019-05-09T11:55:29.723Z,1.97
2019-05-09T11:56:17.975Z,2.34
2019-05-09T11:57:18.925Z,2.68
2019-05-09T11:58:18.084Z,0.93
2019-05-09T11:59:15.791Z,1.41
2019-05-09T12:00:17.802Z,0.49
2019-05-09T12:01:18.581Z,1.26
2019-05-09T12:02:18.057Z,2.02
2019-05-09T12:03:16.120Z,1.90
2019-05-09T12:04:15.715Z,2.54
2019-05-09T12:05:19.098Z,1.61
2019-05-09T12:06:16.277Z,1.35
2019-05-09T12:07:17.863Z,1.69
2019-05-09T12:08:17.738Z,1.80
2019-05-09T12:09:15.786Z,2.36
2019-05-09T12:10:18.549Z,2.68
2019-05-09T12:11:18.322Z,2.17
2019-05-09T12:12:15.770Z,1.82
2019-05-09T12:13:18.581Z,1.42
2019-05-09T12:14:15.679Z,1.31
2019-05-09T12:15:19.904Z,2.61
2019-05-09T12:16:18.492Z,2.71
2019-05-09T12:17:15.724Z,2.63
2019-05-09T12:18:16.037Z,3.39
2019-05-09T12:19:18.010Z,2.70
2019-05-09T12:20:17.927Z,2.83
2019-05-09T12:21:18.661Z,2.35
2019-05-09T12:22:19.111Z,2.02
2019-05-09T12:23:19.886Z,1.63
2019-05-09T12:24:18.179Z,3.65
2019-05-09T12:25:18.168Z,2.96
2019-05-09T12:26:18.021Z,2.53
2019-05-09T12:27:18.589Z,1.99
2019-05-09T12:28:15.843Z,2.44
2019-05-09T12:29:15.709Z,2.28
2019-05-09T12:30:18.734Z,2.47
2019-05-09T12:31:18.109Z,2.61
2019-05-09T12:32:18.418Z,2.62
2019-05-09T12:33:18.716Z,1.55
2019-05-09T12:34:18.937Z,1.78
2019-05-09T12:35:18.895Z,2.23
2019-05-09T12:36:19.454Z,2.30
2019-05-09T12:37:18.275Z,3.26
2019-05-09T12:38:18.101Z,3.28
2019-05-09T12:39:18.632Z,3.06
2019-05-09T12:40:19.803Z,3.13
2019-05-09T12:41:18.648Z,2.60
2019-05-09T12:42:18.579Z,2.72
2019-05-09T12:43:18.557Z,2.56
2019-05-09T12:44:18.272Z,1.90
2019-05-09T12:45:17.976Z,1.96
2019-05-09T12:46:17.846Z,0.95
2019-05-09T12:47:18.780Z,2.03
2019-05-09T12:48:16.965Z,1.67
2019-05-09T12:49:15.785Z,2.88
2019-05-09T12:50:18.675Z,1.26
2019-05-09T12:51:18.388Z,1.77
2019-05-09T12:52:18.358Z,1.18
2019-05-09T12:53:18.711Z,1.65
2019-05-09T12:54:18.778Z,2.21
2019-05-09T12:55:17.741Z,2.53
2019-05-09T12:56:18.468Z,2.21
2019-05-09T12:57:19.125Z,1.24
2019-05-09T12:58:17.797Z,3.03
2019-05-09T12:59:18.523Z,1.16
2019-05-09T13:00:18.446Z,2.63
2019-05-09T13:01:17.983Z,2.49
2019-05-09T13:02:17.759Z,3.00
2019-05-09T13:03:17.854Z,2.52
2019-05-09T13:04:15.799Z,2.42
2019-05-09T13:05:18.146Z,2.74
2019-05-09T13:06:20.262Z,1.10
2019-05-09T13:07:16.699Z,2.78
2019-05-09T13:08:17.768Z,1.78
2019-05-09T13:09:17.835Z,1.98
2019-05-09T13:10:19.096Z,2.38
2019-05-09T13:11:15.781Z,2.88
2019-05-09T13:12:18.013Z,2.09
2019-05-09T13:13:18.416Z,2.64
2019-05-09T13:14:15.883Z,1.73
2019-05-09T13:15:18.374Z,1.66
2019-05-09T13:16:17.691Z,2.31
2019-05-09T13:17:17.835Z,1.16
2019-05-09T13:18:22.793Z,1.20